<?xml version="1.0" encoding="UTF-8" standalone="no" ?>
<gpx xmlns="http://www.topografix.com/GPX/1/1" xmlns:xsi="http://www.w3.org/2001/XMLSchema-instance" xsi:schemaLocation="http://www.topografix.com/GPX/1/1 http://www.topografix.com/GPX/1/1/gpx.xsd" version="1.1" creator="VisuGPX - https://www.visugpx.com">
  <metadata>
    <name>Villerest g2</name>
  </metadata>
  <trk>
    <name><![CDATA[DM Barrage de Villerest G2-16965587]]></name>
    <trkseg>
      <trkpt lat="45.97517" lon="4.03868">
        <ele>373</ele>
        <time>2023-11-07T17:51:54Z</time>
      </trkpt>
      <trkpt lat="45.97536" lon="4.03855">
        <ele>371</ele>
        <time>2023-11-07T17:52:22Z</time>
      </trkpt>
      <trkpt lat="45.9754" lon="4.03848">
        <ele>371</ele>
        <time>2023-11-07T17:52:30Z</time>
      </trkpt>
      <trkpt lat="45.97541" lon="4.0384">
        <ele>370</ele>
        <time>2023-11-07T17:52:38Z</time>
      </trkpt>
      <trkpt lat="45.97531" lon="4.03792">
        <ele>369</ele>
        <time>2023-11-07T17:53:24Z</time>
      </trkpt>
      <trkpt lat="45.97527" lon="4.0378">
        <ele>369</ele>
        <time>2023-11-07T17:53:37Z</time>
      </trkpt>
      <trkpt lat="45.97531" lon="4.03772">
        <ele>368</ele>
        <time>2023-11-07T17:53:46Z</time>
      </trkpt>
      <trkpt lat="45.97559" lon="4.03744">
        <ele>365</ele>
        <time>2023-11-07T17:54:31Z</time>
      </trkpt>
      <trkpt lat="45.9756" lon="4.03742">
        <ele>365</ele>
        <time>2023-11-07T17:54:34Z</time>
      </trkpt>
      <trkpt lat="45.97568" lon="4.03709">
        <ele>363</ele>
        <time>2023-11-07T17:55:06Z</time>
      </trkpt>
      <trkpt lat="45.9757" lon="4.03702">
        <ele>363</ele>
        <time>2023-11-07T17:55:13Z</time>
      </trkpt>
      <trkpt lat="45.97576" lon="4.03679">
        <ele>362</ele>
        <time>2023-11-07T17:55:36Z</time>
      </trkpt>
      <trkpt lat="45.97585" lon="4.03625">
        <ele>359</ele>
        <time>2023-11-07T17:56:27Z</time>
      </trkpt>
      <trkpt lat="45.97601" lon="4.03579">
        <ele>355</ele>
        <time>2023-11-07T17:57:15Z</time>
      </trkpt>
      <trkpt lat="45.97623" lon="4.03622">
        <ele>352</ele>
        <time>2023-11-07T17:58:05Z</time>
      </trkpt>
      <trkpt lat="45.97626" lon="4.03648">
        <ele>352</ele>
        <time>2023-11-07T17:58:29Z</time>
      </trkpt>
      <trkpt lat="45.97635" lon="4.03674">
        <ele>350</ele>
        <time>2023-11-07T17:58:56Z</time>
      </trkpt>
      <trkpt lat="45.97637" lon="4.03702">
        <ele>350</ele>
        <time>2023-11-07T17:59:22Z</time>
      </trkpt>
      <trkpt lat="45.97636" lon="4.03732">
        <ele>350</ele>
        <time>2023-11-07T17:59:50Z</time>
      </trkpt>
      <trkpt lat="45.97638" lon="4.03758">
        <ele>350</ele>
        <time>2023-11-07T18:00:14Z</time>
      </trkpt>
      <trkpt lat="45.97653" lon="4.03808">
        <ele>348</ele>
        <time>2023-11-07T18:01:05Z</time>
      </trkpt>
      <trkpt lat="45.97667" lon="4.03828">
        <ele>345</ele>
        <time>2023-11-07T18:01:31Z</time>
      </trkpt>
      <trkpt lat="45.97699" lon="4.03864">
        <ele>345</ele>
        <time>2023-11-07T18:02:25Z</time>
      </trkpt>
      <trkpt lat="45.97725" lon="4.03909">
        <ele>348</ele>
        <time>2023-11-07T18:03:20Z</time>
      </trkpt>
      <trkpt lat="45.97747" lon="4.03954">
        <ele>348</ele>
        <time>2023-11-07T18:04:11Z</time>
      </trkpt>
      <trkpt lat="45.97753" lon="4.03979">
        <ele>349</ele>
        <time>2023-11-07T18:04:35Z</time>
      </trkpt>
      <trkpt lat="45.97784" lon="4.04052">
        <ele>349</ele>
        <time>2023-11-07T18:05:54Z</time>
      </trkpt>
      <trkpt lat="45.9782" lon="4.04081">
        <ele>345</ele>
        <time>2023-11-07T18:06:50Z</time>
      </trkpt>
      <trkpt lat="45.97838" lon="4.04086">
        <ele>344</ele>
        <time>2023-11-07T18:07:14Z</time>
      </trkpt>
      <trkpt lat="45.97857" lon="4.04081">
        <ele>343</ele>
        <time>2023-11-07T18:07:40Z</time>
      </trkpt>
      <trkpt lat="45.97909" lon="4.04052">
        <ele>338</ele>
        <time>2023-11-07T18:08:54Z</time>
      </trkpt>
      <trkpt lat="45.97928" lon="4.04047">
        <ele>336</ele>
        <time>2023-11-07T18:09:20Z</time>
      </trkpt>
      <trkpt lat="45.97964" lon="4.04065">
        <ele>334</ele>
        <time>2023-11-07T18:10:11Z</time>
      </trkpt>
      <trkpt lat="45.98001" lon="4.04087">
        <ele>334</ele>
        <time>2023-11-07T18:11:04Z</time>
      </trkpt>
      <trkpt lat="45.98019" lon="4.04101">
        <ele>335</ele>
        <time>2023-11-07T18:11:32Z</time>
      </trkpt>
      <trkpt lat="45.98036" lon="4.04111">
        <ele>335</ele>
        <time>2023-11-07T18:11:56Z</time>
      </trkpt>
      <trkpt lat="45.98073" lon="4.04128">
        <ele>334</ele>
        <time>2023-11-07T18:12:48Z</time>
      </trkpt>
      <trkpt lat="45.98093" lon="4.04133">
        <ele>333</ele>
        <time>2023-11-07T18:13:15Z</time>
      </trkpt>
      <trkpt lat="45.98125" lon="4.04158">
        <ele>332</ele>
        <time>2023-11-07T18:14:04Z</time>
      </trkpt>
      <trkpt lat="45.98174" lon="4.04203">
        <ele>331</ele>
        <time>2023-11-07T18:15:21Z</time>
      </trkpt>
      <trkpt lat="45.98231" lon="4.04233">
        <ele>325</ele>
        <time>2023-11-07T18:16:42Z</time>
      </trkpt>
      <trkpt lat="45.98248" lon="4.04248">
        <ele>322</ele>
        <time>2023-11-07T18:17:09Z</time>
      </trkpt>
      <trkpt lat="45.98258" lon="4.04272">
        <ele>325</ele>
        <time>2023-11-07T18:17:35Z</time>
      </trkpt>
      <trkpt lat="45.98268" lon="4.04322">
        <ele>331</ele>
        <time>2023-11-07T18:18:23Z</time>
      </trkpt>
      <trkpt lat="45.98262" lon="4.04376">
        <ele>336</ele>
        <time>2023-11-07T18:19:14Z</time>
      </trkpt>
      <trkpt lat="45.98265" lon="4.04402">
        <ele>337</ele>
        <time>2023-11-07T18:19:38Z</time>
      </trkpt>
      <trkpt lat="45.98264" lon="4.04429">
        <ele>337</ele>
        <time>2023-11-07T18:20:03Z</time>
      </trkpt>
      <trkpt lat="45.98253" lon="4.04484">
        <ele>340</ele>
        <time>2023-11-07T18:20:56Z</time>
      </trkpt>
      <trkpt lat="45.98249" lon="4.04514">
        <ele>338</ele>
        <time>2023-11-07T18:21:25Z</time>
      </trkpt>
      <trkpt lat="45.9824" lon="4.04538">
        <ele>338</ele>
        <time>2023-11-07T18:21:50Z</time>
      </trkpt>
      <trkpt lat="45.98218" lon="4.04582">
        <ele>340</ele>
        <time>2023-11-07T18:22:40Z</time>
      </trkpt>
      <trkpt lat="45.98173" lon="4.04641">
        <ele>344</ele>
        <time>2023-11-07T18:24:01Z</time>
      </trkpt>
      <trkpt lat="45.98163" lon="4.04667">
        <ele>341</ele>
        <time>2023-11-07T18:24:29Z</time>
      </trkpt>
      <trkpt lat="45.98135" lon="4.04702">
        <ele>345</ele>
        <time>2023-11-07T18:25:18Z</time>
      </trkpt>
      <trkpt lat="45.98125" lon="4.04725">
        <ele>345</ele>
        <time>2023-11-07T18:25:44Z</time>
      </trkpt>
      <trkpt lat="45.98118" lon="4.04749">
        <ele>344</ele>
        <time>2023-11-07T18:26:08Z</time>
      </trkpt>
      <trkpt lat="45.98109" lon="4.04772">
        <ele>345</ele>
        <time>2023-11-07T18:26:32Z</time>
      </trkpt>
      <trkpt lat="45.98107" lon="4.04799">
        <ele>345</ele>
        <time>2023-11-07T18:26:57Z</time>
      </trkpt>
      <trkpt lat="45.98113" lon="4.04825">
        <ele>345</ele>
        <time>2023-11-07T18:27:23Z</time>
      </trkpt>
      <trkpt lat="45.98133" lon="4.04838">
        <ele>345</ele>
        <time>2023-11-07T18:27:52Z</time>
      </trkpt>
      <trkpt lat="45.98152" lon="4.04836">
        <ele>344</ele>
        <time>2023-11-07T18:28:17Z</time>
      </trkpt>
      <trkpt lat="45.98168" lon="4.04825">
        <ele>342</ele>
        <time>2023-11-07T18:28:41Z</time>
      </trkpt>
      <trkpt lat="45.98181" lon="4.04801">
        <ele>341</ele>
        <time>2023-11-07T18:29:09Z</time>
      </trkpt>
      <trkpt lat="45.98208" lon="4.04764">
        <ele>338</ele>
        <time>2023-11-07T18:29:59Z</time>
      </trkpt>
      <trkpt lat="45.98227" lon="4.04758">
        <ele>338</ele>
        <time>2023-11-07T18:30:25Z</time>
      </trkpt>
      <trkpt lat="45.98245" lon="4.04758">
        <ele>338</ele>
        <time>2023-11-07T18:30:49Z</time>
      </trkpt>
      <trkpt lat="45.98263" lon="4.04765">
        <ele>338</ele>
        <time>2023-11-07T18:31:14Z</time>
      </trkpt>
      <trkpt lat="45.9828" lon="4.04776">
        <ele>339</ele>
        <time>2023-11-07T18:31:39Z</time>
      </trkpt>
      <trkpt lat="45.98293" lon="4.04796">
        <ele>340</ele>
        <time>2023-11-07T18:32:04Z</time>
      </trkpt>
      <trkpt lat="45.98309" lon="4.04808">
        <ele>340</ele>
        <time>2023-11-07T18:32:28Z</time>
      </trkpt>
      <trkpt lat="45.98354" lon="4.04892">
        <ele>346</ele>
        <time>2023-11-07T18:34:07Z</time>
      </trkpt>
      <trkpt lat="45.9837" lon="4.04911">
        <ele>348</ele>
        <time>2023-11-07T18:34:34Z</time>
      </trkpt>
      <trkpt lat="45.98386" lon="4.04927">
        <ele>350</ele>
        <time>2023-11-07T18:35:00Z</time>
      </trkpt>
      <trkpt lat="45.98402" lon="4.0494">
        <ele>351</ele>
        <time>2023-11-07T18:35:25Z</time>
      </trkpt>
      <trkpt lat="45.98422" lon="4.04946">
        <ele>351</ele>
        <time>2023-11-07T18:35:52Z</time>
      </trkpt>
      <trkpt lat="45.98479" lon="4.04952">
        <ele>347</ele>
        <time>2023-11-07T18:37:08Z</time>
      </trkpt>
      <trkpt lat="45.98497" lon="4.0496">
        <ele>348</ele>
        <time>2023-11-07T18:37:34Z</time>
      </trkpt>
      <trkpt lat="45.98513" lon="4.04975">
        <ele>347</ele>
        <time>2023-11-07T18:37:59Z</time>
      </trkpt>
      <trkpt lat="45.98522" lon="4.04998">
        <ele>348</ele>
        <time>2023-11-07T18:38:24Z</time>
      </trkpt>
      <trkpt lat="45.98524" lon="4.05025">
        <ele>352</ele>
        <time>2023-11-07T18:38:49Z</time>
      </trkpt>
      <trkpt lat="45.9852" lon="4.05051">
        <ele>357</ele>
        <time>2023-11-07T18:39:13Z</time>
      </trkpt>
      <trkpt lat="45.98513" lon="4.05075">
        <ele>363</ele>
        <time>2023-11-07T18:39:38Z</time>
      </trkpt>
      <trkpt lat="45.98512" lon="4.05103">
        <ele>366</ele>
        <time>2023-11-07T18:40:04Z</time>
      </trkpt>
      <trkpt lat="45.98515" lon="4.05129">
        <ele>367</ele>
        <time>2023-11-07T18:40:28Z</time>
      </trkpt>
      <trkpt lat="45.98529" lon="4.05148">
        <ele>367</ele>
        <time>2023-11-07T18:40:54Z</time>
      </trkpt>
      <trkpt lat="45.98549" lon="4.05142">
        <ele>364</ele>
        <time>2023-11-07T18:41:21Z</time>
      </trkpt>
      <trkpt lat="45.98566" lon="4.05131">
        <ele>360</ele>
        <time>2023-11-07T18:41:46Z</time>
      </trkpt>
      <trkpt lat="45.98602" lon="4.05138">
        <ele>362</ele>
        <time>2023-11-07T18:42:34Z</time>
      </trkpt>
      <trkpt lat="45.98619" lon="4.05128">
        <ele>362</ele>
        <time>2023-11-07T18:42:59Z</time>
      </trkpt>
      <trkpt lat="45.98632" lon="4.05147">
        <ele>367</ele>
        <time>2023-11-07T18:43:23Z</time>
      </trkpt>
      <trkpt lat="45.98651" lon="4.05153">
        <ele>371</ele>
        <time>2023-11-07T18:43:49Z</time>
      </trkpt>
      <trkpt lat="45.98675" lon="4.05081">
        <ele>362</ele>
        <time>2023-11-07T18:45:03Z</time>
      </trkpt>
      <trkpt lat="45.98689" lon="4.05097">
        <ele>364</ele>
        <time>2023-11-07T18:45:27Z</time>
      </trkpt>
      <trkpt lat="45.98688" lon="4.05123">
        <ele>367</ele>
        <time>2023-11-07T18:45:51Z</time>
      </trkpt>
      <trkpt lat="45.98707" lon="4.05126">
        <ele>366</ele>
        <time>2023-11-07T18:46:17Z</time>
      </trkpt>
      <trkpt lat="45.98725" lon="4.0512">
        <ele>365</ele>
        <time>2023-11-07T18:46:42Z</time>
      </trkpt>
      <trkpt lat="45.98744" lon="4.05122">
        <ele>364</ele>
        <time>2023-11-07T18:47:07Z</time>
      </trkpt>
      <trkpt lat="45.98763" lon="4.05132">
        <ele>364</ele>
        <time>2023-11-07T18:47:34Z</time>
      </trkpt>
      <trkpt lat="45.98776" lon="4.05151">
        <ele>366</ele>
        <time>2023-11-07T18:47:59Z</time>
      </trkpt>
      <trkpt lat="45.98791" lon="4.05165">
        <ele>368</ele>
        <time>2023-11-07T18:48:23Z</time>
      </trkpt>
      <trkpt lat="45.9881" lon="4.05166">
        <ele>368</ele>
        <time>2023-11-07T18:48:48Z</time>
      </trkpt>
      <trkpt lat="45.98824" lon="4.05184">
        <ele>368</ele>
        <time>2023-11-07T18:49:13Z</time>
      </trkpt>
      <trkpt lat="45.98831" lon="4.05209">
        <ele>370</ele>
        <time>2023-11-07T18:49:38Z</time>
      </trkpt>
      <trkpt lat="45.98831" lon="4.05181">
        <ele>368</ele>
        <time>2023-11-07T18:50:04Z</time>
      </trkpt>
      <trkpt lat="45.98844" lon="4.05163">
        <ele>365</ele>
        <time>2023-11-07T18:50:28Z</time>
      </trkpt>
      <trkpt lat="45.98863" lon="4.05166">
        <ele>364</ele>
        <time>2023-11-07T18:50:54Z</time>
      </trkpt>
      <trkpt lat="45.98881" lon="4.05171">
        <ele>363</ele>
        <time>2023-11-07T18:51:18Z</time>
      </trkpt>
      <trkpt lat="45.98901" lon="4.05169">
        <ele>361</ele>
        <time>2023-11-07T18:51:45Z</time>
      </trkpt>
      <trkpt lat="45.98918" lon="4.05182">
        <ele>361</ele>
        <time>2023-11-07T18:52:10Z</time>
      </trkpt>
      <trkpt lat="45.98929" lon="4.05203">
        <ele>360</ele>
        <time>2023-11-07T18:52:35Z</time>
      </trkpt>
      <trkpt lat="45.98933" lon="4.0523">
        <ele>361</ele>
        <time>2023-11-07T18:53:00Z</time>
      </trkpt>
      <trkpt lat="45.98923" lon="4.05252">
        <ele>364</ele>
        <time>2023-11-07T18:53:25Z</time>
      </trkpt>
      <trkpt lat="45.98933" lon="4.05274">
        <ele>363</ele>
        <time>2023-11-07T18:53:49Z</time>
      </trkpt>
      <trkpt lat="45.9895" lon="4.05263">
        <ele>360</ele>
        <time>2023-11-07T18:54:14Z</time>
      </trkpt>
      <trkpt lat="45.98956" lon="4.05237">
        <ele>357</ele>
        <time>2023-11-07T18:54:40Z</time>
      </trkpt>
      <trkpt lat="45.98959" lon="4.05208">
        <ele>354</ele>
        <time>2023-11-07T18:55:07Z</time>
      </trkpt>
      <trkpt lat="45.98961" lon="4.05149">
        <ele>346</ele>
        <time>2023-11-07T18:56:01Z</time>
      </trkpt>
      <trkpt lat="45.98949" lon="4.05129">
        <ele>344</ele>
        <time>2023-11-07T18:56:26Z</time>
      </trkpt>
      <trkpt lat="45.98934" lon="4.05109">
        <ele>342</ele>
        <time>2023-11-07T18:56:53Z</time>
      </trkpt>
      <trkpt lat="45.98915" lon="4.05098">
        <ele>343</ele>
        <time>2023-11-07T18:57:21Z</time>
      </trkpt>
      <trkpt lat="45.98895" lon="4.05097">
        <ele>344</ele>
        <time>2023-11-07T18:57:47Z</time>
      </trkpt>
      <trkpt lat="45.98876" lon="4.05091">
        <ele>343</ele>
        <time>2023-11-07T18:58:13Z</time>
      </trkpt>
      <trkpt lat="45.98839" lon="4.05088">
        <ele>344</ele>
        <time>2023-11-07T18:59:03Z</time>
      </trkpt>
      <trkpt lat="45.98821" lon="4.05078">
        <ele>343</ele>
        <time>2023-11-07T18:59:28Z</time>
      </trkpt>
      <trkpt lat="45.98777" lon="4.05023">
        <ele>330</ele>
        <time>2023-11-07T19:00:46Z</time>
      </trkpt>
      <trkpt lat="45.98761" lon="4.0501">
        <ele>329</ele>
        <time>2023-11-07T19:01:11Z</time>
      </trkpt>
      <trkpt lat="45.98745" lon="4.04994">
        <ele>325</ele>
        <time>2023-11-07T19:01:37Z</time>
      </trkpt>
      <trkpt lat="45.98728" lon="4.04983">
        <ele>323</ele>
        <time>2023-11-07T19:02:02Z</time>
      </trkpt>
      <trkpt lat="45.98708" lon="4.04973">
        <ele>322</ele>
        <time>2023-11-07T19:02:30Z</time>
      </trkpt>
      <trkpt lat="45.98689" lon="4.04974">
        <ele>325</ele>
        <time>2023-11-07T19:02:55Z</time>
      </trkpt>
      <trkpt lat="45.98673" lon="4.04963">
        <ele>324</ele>
        <time>2023-11-07T19:03:19Z</time>
      </trkpt>
      <trkpt lat="45.98649" lon="4.04917">
        <ele>313</ele>
        <time>2023-11-07T19:04:12Z</time>
      </trkpt>
      <trkpt lat="45.98641" lon="4.04892">
        <ele>311</ele>
        <time>2023-11-07T19:04:38Z</time>
      </trkpt>
      <trkpt lat="45.98637" lon="4.04865">
        <ele>308</ele>
        <time>2023-11-07T19:05:03Z</time>
      </trkpt>
      <trkpt lat="45.98624" lon="4.04815">
        <ele>307</ele>
        <time>2023-11-07T19:05:53Z</time>
      </trkpt>
      <trkpt lat="45.98629" lon="4.04789">
        <ele>307</ele>
        <time>2023-11-07T19:06:18Z</time>
      </trkpt>
      <trkpt lat="45.98637" lon="4.04763">
        <ele>306</ele>
        <time>2023-11-07T19:06:44Z</time>
      </trkpt>
      <trkpt lat="45.98641" lon="4.04737">
        <ele>305</ele>
        <time>2023-11-07T19:07:09Z</time>
      </trkpt>
      <trkpt lat="45.98647" lon="4.04712">
        <ele>305</ele>
        <time>2023-11-07T19:07:33Z</time>
      </trkpt>
      <trkpt lat="45.98657" lon="4.0469">
        <ele>305</ele>
        <time>2023-11-07T19:07:58Z</time>
      </trkpt>
      <trkpt lat="45.98665" lon="4.04667">
        <ele>304</ele>
        <time>2023-11-07T19:08:22Z</time>
      </trkpt>
      <trkpt lat="45.9868" lon="4.04616">
        <ele>310</ele>
        <time>2023-11-07T19:09:13Z</time>
      </trkpt>
      <trkpt lat="45.98703" lon="4.04573">
        <ele>315</ele>
        <time>2023-11-07T19:10:03Z</time>
      </trkpt>
      <trkpt lat="45.98731" lon="4.04502">
        <ele>320</ele>
        <time>2023-11-07T19:11:19Z</time>
      </trkpt>
      <trkpt lat="45.98745" lon="4.0448">
        <ele>322</ele>
        <time>2023-11-07T19:11:47Z</time>
      </trkpt>
      <trkpt lat="45.98755" lon="4.04451">
        <ele>323</ele>
        <time>2023-11-07T19:12:17Z</time>
      </trkpt>
      <trkpt lat="45.98766" lon="4.04428">
        <ele>324</ele>
        <time>2023-11-07T19:12:43Z</time>
      </trkpt>
      <trkpt lat="45.98766" lon="4.04412">
        <ele>325</ele>
        <time>2023-11-07T19:12:57Z</time>
      </trkpt>
      <trkpt lat="45.98752" lon="4.04401">
        <ele>327</ele>
        <time>2023-11-07T19:13:19Z</time>
      </trkpt>
      <trkpt lat="45.98746" lon="4.04413">
        <ele>325</ele>
        <time>2023-11-07T19:13:32Z</time>
      </trkpt>
      <trkpt lat="45.98731" lon="4.04456">
        <ele>323</ele>
        <time>2023-11-07T19:14:17Z</time>
      </trkpt>
      <trkpt lat="45.98711" lon="4.045">
        <ele>320</ele>
        <time>2023-11-07T19:15:06Z</time>
      </trkpt>
      <trkpt lat="45.987" lon="4.04518">
        <ele>319</ele>
        <time>2023-11-07T19:15:28Z</time>
      </trkpt>
      <trkpt lat="45.98653" lon="4.04489">
        <ele>319</ele>
        <time>2023-11-07T19:16:36Z</time>
      </trkpt>
      <trkpt lat="45.98632" lon="4.0446">
        <ele>319</ele>
        <time>2023-11-07T19:17:15Z</time>
      </trkpt>
      <trkpt lat="45.98608" lon="4.04423">
        <ele>318</ele>
        <time>2023-11-07T19:18:02Z</time>
      </trkpt>
      <trkpt lat="45.98592" lon="4.04395">
        <ele>318</ele>
        <time>2023-11-07T19:18:36Z</time>
      </trkpt>
      <trkpt lat="45.98578" lon="4.04362">
        <ele>318</ele>
        <time>2023-11-07T19:19:11Z</time>
      </trkpt>
      <trkpt lat="45.98574" lon="4.04349">
        <ele>318</ele>
        <time>2023-11-07T19:19:25Z</time>
      </trkpt>
      <trkpt lat="45.98562" lon="4.04299">
        <ele>319</ele>
        <time>2023-11-07T19:20:14Z</time>
      </trkpt>
      <trkpt lat="45.9857" lon="4.04263">
        <ele>320</ele>
        <time>2023-11-07T19:20:49Z</time>
      </trkpt>
      <trkpt lat="45.98573" lon="4.04232">
        <ele>320</ele>
        <time>2023-11-07T19:21:18Z</time>
      </trkpt>
      <trkpt lat="45.98572" lon="4.04198">
        <ele>320</ele>
        <time>2023-11-07T19:21:49Z</time>
      </trkpt>
      <trkpt lat="45.98595" lon="4.04094">
        <ele>321</ele>
        <time>2023-11-07T19:23:31Z</time>
      </trkpt>
      <trkpt lat="45.98599" lon="4.04066">
        <ele>321</ele>
        <time>2023-11-07T19:23:57Z</time>
      </trkpt>
      <trkpt lat="45.98596" lon="4.04047">
        <ele>321</ele>
        <time>2023-11-07T19:24:15Z</time>
      </trkpt>
      <trkpt lat="45.98567" lon="4.03924">
        <ele>321</ele>
        <time>2023-11-07T19:26:16Z</time>
      </trkpt>
      <trkpt lat="45.98556" lon="4.03901">
        <ele>321</ele>
        <time>2023-11-07T19:26:41Z</time>
      </trkpt>
      <trkpt lat="45.98562" lon="4.03845">
        <ele>321</ele>
        <time>2023-11-07T19:27:34Z</time>
      </trkpt>
      <trkpt lat="45.98568" lon="4.03819">
        <ele>322</ele>
        <time>2023-11-07T19:27:59Z</time>
      </trkpt>
      <trkpt lat="45.98569" lon="4.03792">
        <ele>323</ele>
        <time>2023-11-07T19:28:24Z</time>
      </trkpt>
      <trkpt lat="45.9855" lon="4.03795">
        <ele>322</ele>
        <time>2023-11-07T19:28:50Z</time>
      </trkpt>
      <trkpt lat="45.98532" lon="4.03802">
        <ele>320</ele>
        <time>2023-11-07T19:29:15Z</time>
      </trkpt>
      <trkpt lat="45.98512" lon="4.03806">
        <ele>318</ele>
        <time>2023-11-07T19:29:42Z</time>
      </trkpt>
      <trkpt lat="45.98497" lon="4.03787">
        <ele>318</ele>
        <time>2023-11-07T19:30:08Z</time>
      </trkpt>
      <trkpt lat="45.9848" lon="4.0374">
        <ele>319</ele>
        <time>2023-11-07T19:30:58Z</time>
      </trkpt>
      <trkpt lat="45.98466" lon="4.03687">
        <ele>318</ele>
        <time>2023-11-07T19:31:50Z</time>
      </trkpt>
      <trkpt lat="45.98443" lon="4.03639">
        <ele>318</ele>
        <time>2023-11-07T19:32:44Z</time>
      </trkpt>
      <trkpt lat="45.98412" lon="4.03603">
        <ele>316</ele>
        <time>2023-11-07T19:33:37Z</time>
      </trkpt>
      <trkpt lat="45.98425" lon="4.03585">
        <ele>318</ele>
        <time>2023-11-07T19:34:01Z</time>
      </trkpt>
      <trkpt lat="45.98408" lon="4.03508">
        <ele>318</ele>
        <time>2023-11-07T19:35:16Z</time>
      </trkpt>
      <trkpt lat="45.98408" lon="4.03482">
        <ele>318</ele>
        <time>2023-11-07T19:35:40Z</time>
      </trkpt>
      <trkpt lat="45.98419" lon="4.0346">
        <ele>318</ele>
        <time>2023-11-07T19:36:06Z</time>
      </trkpt>
      <trkpt lat="45.98428" lon="4.03434">
        <ele>319</ele>
        <time>2023-11-07T19:36:33Z</time>
      </trkpt>
      <trkpt lat="45.98427" lon="4.03407">
        <ele>319</ele>
        <time>2023-11-07T19:36:58Z</time>
      </trkpt>
      <trkpt lat="45.9841" lon="4.03394">
        <ele>319</ele>
        <time>2023-11-07T19:37:23Z</time>
      </trkpt>
      <trkpt lat="45.98392" lon="4.03383">
        <ele>318</ele>
        <time>2023-11-07T19:37:49Z</time>
      </trkpt>
      <trkpt lat="45.98385" lon="4.03358">
        <ele>319</ele>
        <time>2023-11-07T19:38:14Z</time>
      </trkpt>
      <trkpt lat="45.98404" lon="4.03308">
        <ele>322</ele>
        <time>2023-11-07T19:39:07Z</time>
      </trkpt>
      <trkpt lat="45.98431" lon="4.03267">
        <ele>323</ele>
        <time>2023-11-07T19:40:00Z</time>
      </trkpt>
      <trkpt lat="45.98436" lon="4.03241">
        <ele>324</ele>
        <time>2023-11-07T19:40:25Z</time>
      </trkpt>
      <trkpt lat="45.98418" lon="4.03232">
        <ele>324</ele>
        <time>2023-11-07T19:40:50Z</time>
      </trkpt>
      <trkpt lat="45.98382" lon="4.03255">
        <ele>322</ele>
        <time>2023-11-07T19:41:43Z</time>
      </trkpt>
      <trkpt lat="45.98366" lon="4.03271">
        <ele>321</ele>
        <time>2023-11-07T19:42:09Z</time>
      </trkpt>
      <trkpt lat="45.98349" lon="4.03281">
        <ele>320</ele>
        <time>2023-11-07T19:42:33Z</time>
      </trkpt>
      <trkpt lat="45.98331" lon="4.03274">
        <ele>319</ele>
        <time>2023-11-07T19:42:58Z</time>
      </trkpt>
      <trkpt lat="45.98316" lon="4.0326">
        <ele>319</ele>
        <time>2023-11-07T19:43:22Z</time>
      </trkpt>
      <trkpt lat="45.98307" lon="4.03235">
        <ele>320</ele>
        <time>2023-11-07T19:43:48Z</time>
      </trkpt>
      <trkpt lat="45.98288" lon="4.03224">
        <ele>321</ele>
        <time>2023-11-07T19:44:15Z</time>
      </trkpt>
      <trkpt lat="45.98269" lon="4.0322">
        <ele>320</ele>
        <time>2023-11-07T19:44:41Z</time>
      </trkpt>
      <trkpt lat="45.98249" lon="4.03219">
        <ele>319</ele>
        <time>2023-11-07T19:45:08Z</time>
      </trkpt>
      <trkpt lat="45.9823" lon="4.03214">
        <ele>319</ele>
        <time>2023-11-07T19:45:33Z</time>
      </trkpt>
      <trkpt lat="45.9821" lon="4.03211">
        <ele>319</ele>
        <time>2023-11-07T19:46:00Z</time>
      </trkpt>
      <trkpt lat="45.98191" lon="4.03204">
        <ele>319</ele>
        <time>2023-11-07T19:46:26Z</time>
      </trkpt>
      <trkpt lat="45.98136" lon="4.03176">
        <ele>320</ele>
        <time>2023-11-07T19:47:44Z</time>
      </trkpt>
      <trkpt lat="45.98082" lon="4.0314">
        <ele>320</ele>
        <time>2023-11-07T19:49:04Z</time>
      </trkpt>
      <trkpt lat="45.98064" lon="4.03127">
        <ele>320</ele>
        <time>2023-11-07T19:49:31Z</time>
      </trkpt>
      <trkpt lat="45.98046" lon="4.03111">
        <ele>320</ele>
        <time>2023-11-07T19:49:59Z</time>
      </trkpt>
      <trkpt lat="45.98035" lon="4.03091">
        <ele>321</ele>
        <time>2023-11-07T19:50:22Z</time>
      </trkpt>
      <trkpt lat="45.98021" lon="4.0307">
        <ele>322</ele>
        <time>2023-11-07T19:50:49Z</time>
      </trkpt>
      <trkpt lat="45.97988" lon="4.03041">
        <ele>324</ele>
        <time>2023-11-07T19:51:41Z</time>
      </trkpt>
      <trkpt lat="45.97936" lon="4.03005">
        <ele>325</ele>
        <time>2023-11-07T19:52:58Z</time>
      </trkpt>
      <trkpt lat="45.97905" lon="4.02976">
        <ele>326</ele>
        <time>2023-11-07T19:53:47Z</time>
      </trkpt>
      <trkpt lat="45.97887" lon="4.02965">
        <ele>326</ele>
        <time>2023-11-07T19:54:13Z</time>
      </trkpt>
      <trkpt lat="45.97869" lon="4.02958">
        <ele>324</ele>
        <time>2023-11-07T19:54:38Z</time>
      </trkpt>
      <trkpt lat="45.97854" lon="4.02939">
        <ele>325</ele>
        <time>2023-11-07T19:55:05Z</time>
      </trkpt>
      <trkpt lat="45.978" lon="4.02921">
        <ele>323</ele>
        <time>2023-11-07T19:56:19Z</time>
      </trkpt>
      <trkpt lat="45.97781" lon="4.02912">
        <ele>324</ele>
        <time>2023-11-07T19:56:46Z</time>
      </trkpt>
      <trkpt lat="45.97764" lon="4.02899">
        <ele>325</ele>
        <time>2023-11-07T19:57:11Z</time>
      </trkpt>
      <trkpt lat="45.97745" lon="4.02893">
        <ele>325</ele>
        <time>2023-11-07T19:57:37Z</time>
      </trkpt>
      <trkpt lat="45.97727" lon="4.02883">
        <ele>325</ele>
        <time>2023-11-07T19:58:03Z</time>
      </trkpt>
      <trkpt lat="45.9771" lon="4.02871">
        <ele>324</ele>
        <time>2023-11-07T19:58:28Z</time>
      </trkpt>
      <trkpt lat="45.97693" lon="4.02855">
        <ele>324</ele>
        <time>2023-11-07T19:58:55Z</time>
      </trkpt>
      <trkpt lat="45.97674" lon="4.02844">
        <ele>322</ele>
        <time>2023-11-07T19:59:23Z</time>
      </trkpt>
      <trkpt lat="45.97657" lon="4.02858">
        <ele>320</ele>
        <time>2023-11-07T19:59:49Z</time>
      </trkpt>
      <trkpt lat="45.9764" lon="4.02868">
        <ele>319</ele>
        <time>2023-11-07T20:00:13Z</time>
      </trkpt>
      <trkpt lat="45.97621" lon="4.02862">
        <ele>319</ele>
        <time>2023-11-07T20:00:39Z</time>
      </trkpt>
      <trkpt lat="45.97586" lon="4.02836">
        <ele>319</ele>
        <time>2023-11-07T20:01:32Z</time>
      </trkpt>
      <trkpt lat="45.97561" lon="4.02795">
        <ele>320</ele>
        <time>2023-11-07T20:02:23Z</time>
      </trkpt>
      <trkpt lat="45.97544" lon="4.02783">
        <ele>319</ele>
        <time>2023-11-07T20:02:48Z</time>
      </trkpt>
      <trkpt lat="45.97528" lon="4.02768">
        <ele>319</ele>
        <time>2023-11-07T20:03:13Z</time>
      </trkpt>
      <trkpt lat="45.97502" lon="4.02728">
        <ele>318</ele>
        <time>2023-11-07T20:04:04Z</time>
      </trkpt>
      <trkpt lat="45.97493" lon="4.02701">
        <ele>318</ele>
        <time>2023-11-07T20:04:32Z</time>
      </trkpt>
      <trkpt lat="45.9748" lon="4.02681">
        <ele>318</ele>
        <time>2023-11-07T20:04:57Z</time>
      </trkpt>
      <trkpt lat="45.97469" lon="4.02659">
        <ele>318</ele>
        <time>2023-11-07T20:05:22Z</time>
      </trkpt>
      <trkpt lat="45.97462" lon="4.02635">
        <ele>318</ele>
        <time>2023-11-07T20:05:47Z</time>
      </trkpt>
      <trkpt lat="45.97463" lon="4.02608">
        <ele>318</ele>
        <time>2023-11-07T20:06:12Z</time>
      </trkpt>
      <trkpt lat="45.97468" lon="4.0258">
        <ele>318</ele>
        <time>2023-11-07T20:06:38Z</time>
      </trkpt>
      <trkpt lat="45.9746" lon="4.02554">
        <ele>317</ele>
        <time>2023-11-07T20:07:05Z</time>
      </trkpt>
      <trkpt lat="45.97455" lon="4.02526">
        <ele>317</ele>
        <time>2023-11-07T20:07:32Z</time>
      </trkpt>
      <trkpt lat="45.97459" lon="4.02498">
        <ele>316</ele>
        <time>2023-11-07T20:07:58Z</time>
      </trkpt>
      <trkpt lat="45.97466" lon="4.02474">
        <ele>316</ele>
        <time>2023-11-07T20:08:22Z</time>
      </trkpt>
      <trkpt lat="45.97478" lon="4.02452">
        <ele>316</ele>
        <time>2023-11-07T20:08:48Z</time>
      </trkpt>
      <trkpt lat="45.97495" lon="4.0244">
        <ele>317</ele>
        <time>2023-11-07T20:09:13Z</time>
      </trkpt>
      <trkpt lat="45.97509" lon="4.0242">
        <ele>318</ele>
        <time>2023-11-07T20:09:40Z</time>
      </trkpt>
      <trkpt lat="45.97518" lon="4.02396">
        <ele>318</ele>
        <time>2023-11-07T20:10:05Z</time>
      </trkpt>
      <trkpt lat="45.97532" lon="4.02374">
        <ele>319</ele>
        <time>2023-11-07T20:10:33Z</time>
      </trkpt>
      <trkpt lat="45.9755" lon="4.02364">
        <ele>320</ele>
        <time>2023-11-07T20:10:59Z</time>
      </trkpt>
      <trkpt lat="45.97569" lon="4.02316">
        <ele>318</ele>
        <time>2023-11-07T20:11:50Z</time>
      </trkpt>
      <trkpt lat="45.97587" lon="4.02309">
        <ele>319</ele>
        <time>2023-11-07T20:12:15Z</time>
      </trkpt>
      <trkpt lat="45.97605" lon="4.02309">
        <ele>320</ele>
        <time>2023-11-07T20:12:39Z</time>
      </trkpt>
      <trkpt lat="45.97618" lon="4.02327">
        <ele>322</ele>
        <time>2023-11-07T20:13:03Z</time>
      </trkpt>
      <trkpt lat="45.97628" lon="4.0235">
        <ele>324</ele>
        <time>2023-11-07T20:13:28Z</time>
      </trkpt>
      <trkpt lat="45.97641" lon="4.0237">
        <ele>327</ele>
        <time>2023-11-07T20:13:53Z</time>
      </trkpt>
      <trkpt lat="45.97652" lon="4.02451">
        <ele>336</ele>
        <time>2023-11-07T20:15:10Z</time>
      </trkpt>
      <trkpt lat="45.97662" lon="4.02503">
        <ele>340</ele>
        <time>2023-11-07T20:16:00Z</time>
      </trkpt>
      <trkpt lat="45.97661" lon="4.02529">
        <ele>341</ele>
        <time>2023-11-07T20:16:24Z</time>
      </trkpt>
      <trkpt lat="45.97666" lon="4.02554">
        <ele>342</ele>
        <time>2023-11-07T20:16:48Z</time>
      </trkpt>
      <trkpt lat="45.97678" lon="4.02575">
        <ele>345</ele>
        <time>2023-11-07T20:17:13Z</time>
      </trkpt>
      <trkpt lat="45.97684" lon="4.02601">
        <ele>345</ele>
        <time>2023-11-07T20:17:39Z</time>
      </trkpt>
      <trkpt lat="45.97693" lon="4.02626">
        <ele>346</ele>
        <time>2023-11-07T20:18:05Z</time>
      </trkpt>
      <trkpt lat="45.97706" lon="4.02645">
        <ele>347</ele>
        <time>2023-11-07T20:18:30Z</time>
      </trkpt>
      <trkpt lat="45.97722" lon="4.02655">
        <ele>349</ele>
        <time>2023-11-07T20:18:53Z</time>
      </trkpt>
      <trkpt lat="45.97742" lon="4.02654">
        <ele>352</ele>
        <time>2023-11-07T20:19:20Z</time>
      </trkpt>
      <trkpt lat="45.9776" lon="4.02643">
        <ele>354</ele>
        <time>2023-11-07T20:19:46Z</time>
      </trkpt>
      <trkpt lat="45.97779" lon="4.0264">
        <ele>356</ele>
        <time>2023-11-07T20:20:11Z</time>
      </trkpt>
      <trkpt lat="45.97797" lon="4.02639">
        <ele>358</ele>
        <time>2023-11-07T20:20:35Z</time>
      </trkpt>
      <trkpt lat="45.97816" lon="4.02644">
        <ele>359</ele>
        <time>2023-11-07T20:21:01Z</time>
      </trkpt>
      <trkpt lat="45.97854" lon="4.0264">
        <ele>361</ele>
        <time>2023-11-07T20:21:52Z</time>
      </trkpt>
      <trkpt lat="45.97873" lon="4.02636">
        <ele>362</ele>
        <time>2023-11-07T20:22:17Z</time>
      </trkpt>
      <trkpt lat="45.97891" lon="4.02625">
        <ele>363</ele>
        <time>2023-11-07T20:22:44Z</time>
      </trkpt>
      <trkpt lat="45.97927" lon="4.02611">
        <ele>365</ele>
        <time>2023-11-07T20:23:33Z</time>
      </trkpt>
      <trkpt lat="45.97949" lon="4.02614">
        <ele>366</ele>
        <time>2023-11-07T20:24:03Z</time>
      </trkpt>
      <trkpt lat="45.97952" lon="4.0262">
        <ele>366</ele>
        <time>2023-11-07T20:24:10Z</time>
      </trkpt>
      <trkpt lat="45.98102" lon="4.02707">
        <ele>360</ele>
        <time>2023-11-07T20:27:45Z</time>
      </trkpt>
      <trkpt lat="45.98143" lon="4.02736">
        <ele>362</ele>
        <time>2023-11-07T20:28:46Z</time>
      </trkpt>
      <trkpt lat="45.98141" lon="4.02736">
        <ele>362</ele>
        <time>2023-11-07T20:28:49Z</time>
      </trkpt>
      <trkpt lat="45.98119" lon="4.02802">
        <ele>355</ele>
        <time>2023-11-07T20:29:57Z</time>
      </trkpt>
      <trkpt lat="45.98108" lon="4.02894">
        <ele>344</ele>
        <time>2023-11-07T20:31:24Z</time>
      </trkpt>
      <trkpt lat="45.98109" lon="4.02905">
        <ele>343</ele>
        <time>2023-11-07T20:31:34Z</time>
      </trkpt>
      <trkpt lat="45.98324" lon="4.03078">
        <ele>336</ele>
        <time>2023-11-07T20:37:03Z</time>
      </trkpt>
      <trkpt lat="45.98334" lon="4.03085">
        <ele>336</ele>
        <time>2023-11-07T20:37:17Z</time>
      </trkpt>
      <trkpt lat="45.9834" lon="4.03086">
        <ele>336</ele>
        <time>2023-11-07T20:37:25Z</time>
      </trkpt>
      <trkpt lat="45.98397" lon="4.03088">
        <ele>336</ele>
        <time>2023-11-07T20:38:42Z</time>
      </trkpt>
      <trkpt lat="45.98481" lon="4.03071">
        <ele>338</ele>
        <time>2023-11-07T20:40:35Z</time>
      </trkpt>
      <trkpt lat="45.98504" lon="4.03063">
        <ele>339</ele>
        <time>2023-11-07T20:41:06Z</time>
      </trkpt>
      <trkpt lat="45.98518" lon="4.03052">
        <ele>340</ele>
        <time>2023-11-07T20:41:28Z</time>
      </trkpt>
      <trkpt lat="45.98588" lon="4.02988">
        <ele>344</ele>
        <time>2023-11-07T20:43:18Z</time>
      </trkpt>
      <trkpt lat="45.98602" lon="4.02982">
        <ele>346</ele>
        <time>2023-11-07T20:43:38Z</time>
      </trkpt>
      <trkpt lat="45.98619" lon="4.02986">
        <ele>347</ele>
        <time>2023-11-07T20:44:01Z</time>
      </trkpt>
      <trkpt lat="45.98634" lon="4.0301">
        <ele>346</ele>
        <time>2023-11-07T20:44:31Z</time>
      </trkpt>
      <trkpt lat="45.9864" lon="4.03015">
        <ele>346</ele>
        <time>2023-11-07T20:44:40Z</time>
      </trkpt>
      <trkpt lat="45.98667" lon="4.03022">
        <ele>348</ele>
        <time>2023-11-07T20:45:17Z</time>
      </trkpt>
      <trkpt lat="45.98692" lon="4.03023">
        <ele>349</ele>
        <time>2023-11-07T20:45:50Z</time>
      </trkpt>
      <trkpt lat="45.98697" lon="4.03022">
        <ele>349</ele>
        <time>2023-11-07T20:45:57Z</time>
      </trkpt>
      <trkpt lat="45.98691" lon="4.03014">
        <ele>350</ele>
        <time>2023-11-07T20:46:08Z</time>
      </trkpt>
      <trkpt lat="45.98666" lon="4.02981">
        <ele>352</ele>
        <time>2023-11-07T20:46:53Z</time>
      </trkpt>
      <trkpt lat="45.98653" lon="4.02959">
        <ele>354</ele>
        <time>2023-11-07T20:47:20Z</time>
      </trkpt>
      <trkpt lat="45.98648" lon="4.02943">
        <ele>355</ele>
        <time>2023-11-07T20:47:36Z</time>
      </trkpt>
      <trkpt lat="45.98639" lon="4.02897">
        <ele>360</ele>
        <time>2023-11-07T20:48:20Z</time>
      </trkpt>
      <trkpt lat="45.98635" lon="4.02879">
        <ele>363</ele>
        <time>2023-11-07T20:48:38Z</time>
      </trkpt>
      <trkpt lat="45.98617" lon="4.02847">
        <ele>366</ele>
        <time>2023-11-07T20:49:16Z</time>
      </trkpt>
      <trkpt lat="45.98576" lon="4.02815">
        <ele>367</ele>
        <time>2023-11-07T20:50:18Z</time>
      </trkpt>
      <trkpt lat="45.98585" lon="4.02778">
        <ele>371</ele>
        <time>2023-11-07T20:50:54Z</time>
      </trkpt>
      <trkpt lat="45.98591" lon="4.02772">
        <ele>372</ele>
        <time>2023-11-07T20:51:04Z</time>
      </trkpt>
      <trkpt lat="45.98599" lon="4.02772">
        <ele>373</ele>
        <time>2023-11-07T20:51:15Z</time>
      </trkpt>
      <trkpt lat="45.98647" lon="4.02796">
        <ele>375</ele>
        <time>2023-11-07T20:52:23Z</time>
      </trkpt>
      <trkpt lat="45.98649" lon="4.02798">
        <ele>375</ele>
        <time>2023-11-07T20:52:26Z</time>
      </trkpt>
      <trkpt lat="45.98672" lon="4.02798">
        <ele>377</ele>
        <time>2023-11-07T20:52:57Z</time>
      </trkpt>
      <trkpt lat="45.98766" lon="4.02785">
        <ele>378</ele>
        <time>2023-11-07T20:55:03Z</time>
      </trkpt>
      <trkpt lat="45.98752" lon="4.0277">
        <ele>379</ele>
        <time>2023-11-07T20:55:26Z</time>
      </trkpt>
      <trkpt lat="45.98776" lon="4.02749">
        <ele>381</ele>
        <time>2023-11-07T20:56:03Z</time>
      </trkpt>
      <trkpt lat="45.98755" lon="4.02722">
        <ele>384</ele>
        <time>2023-11-07T20:56:41Z</time>
      </trkpt>
      <trkpt lat="45.9875" lon="4.02715">
        <ele>385</ele>
        <time>2023-11-07T20:56:50Z</time>
      </trkpt>
      <trkpt lat="45.9875" lon="4.0265">
        <ele>391</ele>
        <time>2023-11-07T20:57:51Z</time>
      </trkpt>
      <trkpt lat="45.98749" lon="4.0265">
        <ele>391</ele>
        <time>2023-11-07T20:57:52Z</time>
      </trkpt>
      <trkpt lat="45.98786" lon="4.02649">
        <ele>390</ele>
        <time>2023-11-07T20:58:41Z</time>
      </trkpt>
      <trkpt lat="45.98804" lon="4.02654">
        <ele>389</ele>
        <time>2023-11-07T20:59:06Z</time>
      </trkpt>
      <trkpt lat="45.98824" lon="4.02649">
        <ele>389</ele>
        <time>2023-11-07T20:59:33Z</time>
      </trkpt>
      <trkpt lat="45.98842" lon="4.02642">
        <ele>389</ele>
        <time>2023-11-07T20:59:58Z</time>
      </trkpt>
      <trkpt lat="45.98862" lon="4.02639">
        <ele>389</ele>
        <time>2023-11-07T21:00:25Z</time>
      </trkpt>
      <trkpt lat="45.98881" lon="4.0264">
        <ele>388</ele>
        <time>2023-11-07T21:00:50Z</time>
      </trkpt>
      <trkpt lat="45.98904" lon="4.02637">
        <ele>387</ele>
        <time>2023-11-07T21:01:21Z</time>
      </trkpt>
      <trkpt lat="45.98923" lon="4.02631">
        <ele>387</ele>
        <time>2023-11-07T21:01:47Z</time>
      </trkpt>
      <trkpt lat="45.9894" lon="4.02623">
        <ele>387</ele>
        <time>2023-11-07T21:02:11Z</time>
      </trkpt>
      <trkpt lat="45.98977" lon="4.02613">
        <ele>386</ele>
        <time>2023-11-07T21:03:01Z</time>
      </trkpt>
      <trkpt lat="45.9901" lon="4.02583">
        <ele>386</ele>
        <time>2023-11-07T21:03:53Z</time>
      </trkpt>
      <trkpt lat="45.99017" lon="4.02558">
        <ele>387</ele>
        <time>2023-11-07T21:04:18Z</time>
      </trkpt>
      <trkpt lat="45.9902" lon="4.0253">
        <ele>387</ele>
        <time>2023-11-07T21:04:44Z</time>
      </trkpt>
      <trkpt lat="45.99027" lon="4.02506">
        <ele>388</ele>
        <time>2023-11-07T21:05:08Z</time>
      </trkpt>
      <trkpt lat="45.99017" lon="4.02452">
        <ele>390</ele>
        <time>2023-11-07T21:06:00Z</time>
      </trkpt>
      <trkpt lat="45.99017" lon="4.02424">
        <ele>390</ele>
        <time>2023-11-07T21:06:26Z</time>
      </trkpt>
      <trkpt lat="45.9901" lon="4.02369">
        <ele>392</ele>
        <time>2023-11-07T21:07:18Z</time>
      </trkpt>
      <trkpt lat="45.98994" lon="4.02318">
        <ele>394</ele>
        <time>2023-11-07T21:08:10Z</time>
      </trkpt>
      <trkpt lat="45.98977" lon="4.02304">
        <ele>396</ele>
        <time>2023-11-07T21:08:36Z</time>
      </trkpt>
      <trkpt lat="45.98962" lon="4.02289">
        <ele>398</ele>
        <time>2023-11-07T21:09:00Z</time>
      </trkpt>
      <trkpt lat="45.98938" lon="4.02248">
        <ele>402</ele>
        <time>2023-11-07T21:09:50Z</time>
      </trkpt>
      <trkpt lat="45.98924" lon="4.02229">
        <ele>403</ele>
        <time>2023-11-07T21:10:16Z</time>
      </trkpt>
      <trkpt lat="45.98899" lon="4.02188">
        <ele>407</ele>
        <time>2023-11-07T21:11:06Z</time>
      </trkpt>
      <trkpt lat="45.9889" lon="4.02162">
        <ele>408</ele>
        <time>2023-11-07T21:11:33Z</time>
      </trkpt>
      <trkpt lat="45.98877" lon="4.02139">
        <ele>410</ele>
        <time>2023-11-07T21:12:01Z</time>
      </trkpt>
      <trkpt lat="45.98864" lon="4.0212">
        <ele>412</ele>
        <time>2023-11-07T21:12:25Z</time>
      </trkpt>
      <trkpt lat="45.98856" lon="4.02093">
        <ele>413</ele>
        <time>2023-11-07T21:12:53Z</time>
      </trkpt>
      <trkpt lat="45.98843" lon="4.02073">
        <ele>415</ele>
        <time>2023-11-07T21:13:18Z</time>
      </trkpt>
      <trkpt lat="45.98833" lon="4.0205">
        <ele>416</ele>
        <time>2023-11-07T21:13:43Z</time>
      </trkpt>
      <trkpt lat="45.98821" lon="4.02028">
        <ele>417</ele>
        <time>2023-11-07T21:14:09Z</time>
      </trkpt>
      <trkpt lat="45.98813" lon="4.02003">
        <ele>417</ele>
        <time>2023-11-07T21:14:35Z</time>
      </trkpt>
      <trkpt lat="45.98801" lon="4.01981">
        <ele>418</ele>
        <time>2023-11-07T21:15:01Z</time>
      </trkpt>
      <trkpt lat="45.98788" lon="4.01962">
        <ele>418</ele>
        <time>2023-11-07T21:15:25Z</time>
      </trkpt>
      <trkpt lat="45.98776" lon="4.01937">
        <ele>419</ele>
        <time>2023-11-07T21:15:53Z</time>
      </trkpt>
      <trkpt lat="45.98768" lon="4.01912">
        <ele>419</ele>
        <time>2023-11-07T21:16:19Z</time>
      </trkpt>
      <trkpt lat="45.98754" lon="4.01893">
        <ele>418</ele>
        <time>2023-11-07T21:16:45Z</time>
      </trkpt>
      <trkpt lat="45.98686" lon="4.01757">
        <ele>415</ele>
        <time>2023-11-07T21:19:20Z</time>
      </trkpt>
      <trkpt lat="45.98673" lon="4.01736">
        <ele>416</ele>
        <time>2023-11-07T21:19:46Z</time>
      </trkpt>
      <trkpt lat="45.98663" lon="4.01711">
        <ele>416</ele>
        <time>2023-11-07T21:20:13Z</time>
      </trkpt>
      <trkpt lat="45.98621" lon="4.0165">
        <ele>415</ele>
        <time>2023-11-07T21:21:32Z</time>
      </trkpt>
      <trkpt lat="45.98606" lon="4.01631">
        <ele>414</ele>
        <time>2023-11-07T21:21:59Z</time>
      </trkpt>
      <trkpt lat="45.98595" lon="4.01606">
        <ele>412</ele>
        <time>2023-11-07T21:22:27Z</time>
      </trkpt>
      <trkpt lat="45.98582" lon="4.01587">
        <ele>411</ele>
        <time>2023-11-07T21:22:51Z</time>
      </trkpt>
      <trkpt lat="45.98556" lon="4.01542">
        <ele>410</ele>
        <time>2023-11-07T21:23:46Z</time>
      </trkpt>
      <trkpt lat="45.98539" lon="4.0149">
        <ele>408</ele>
        <time>2023-11-07T21:24:39Z</time>
      </trkpt>
      <trkpt lat="45.98518" lon="4.01442">
        <ele>407</ele>
        <time>2023-11-07T21:25:31Z</time>
      </trkpt>
      <trkpt lat="45.98512" lon="4.01417">
        <ele>406</ele>
        <time>2023-11-07T21:25:56Z</time>
      </trkpt>
      <trkpt lat="45.98508" lon="4.0136">
        <ele>402</ele>
        <time>2023-11-07T21:26:49Z</time>
      </trkpt>
      <trkpt lat="45.985" lon="4.01306">
        <ele>398</ele>
        <time>2023-11-07T21:27:40Z</time>
      </trkpt>
      <trkpt lat="45.98494" lon="4.0128">
        <ele>396</ele>
        <time>2023-11-07T21:28:06Z</time>
      </trkpt>
      <trkpt lat="45.98498" lon="4.01227">
        <ele>392</ele>
        <time>2023-11-07T21:28:55Z</time>
      </trkpt>
      <trkpt lat="45.98502" lon="4.01199">
        <ele>391</ele>
        <time>2023-11-07T21:29:22Z</time>
      </trkpt>
      <trkpt lat="45.98517" lon="4.01146">
        <ele>391</ele>
        <time>2023-11-07T21:30:15Z</time>
      </trkpt>
      <trkpt lat="45.98511" lon="4.01097">
        <ele>388</ele>
        <time>2023-11-07T21:31:01Z</time>
      </trkpt>
      <trkpt lat="45.98505" lon="4.01072">
        <ele>386</ele>
        <time>2023-11-07T21:31:25Z</time>
      </trkpt>
      <trkpt lat="45.98494" lon="4.01049">
        <ele>385</ele>
        <time>2023-11-07T21:31:51Z</time>
      </trkpt>
      <trkpt lat="45.98464" lon="4.01017">
        <ele>382</ele>
        <time>2023-11-07T21:32:41Z</time>
      </trkpt>
      <trkpt lat="45.98427" lon="4.00999">
        <ele>375</ele>
        <time>2023-11-07T21:33:33Z</time>
      </trkpt>
      <trkpt lat="45.98409" lon="4.00994">
        <ele>373</ele>
        <time>2023-11-07T21:33:58Z</time>
      </trkpt>
      <trkpt lat="45.9837" lon="4.00989">
        <ele>369</ele>
        <time>2023-11-07T21:34:50Z</time>
      </trkpt>
      <trkpt lat="45.98369" lon="4.00963">
        <ele>372</ele>
        <time>2023-11-07T21:35:14Z</time>
      </trkpt>
      <trkpt lat="45.98376" lon="4.00937">
        <ele>376</ele>
        <time>2023-11-07T21:35:40Z</time>
      </trkpt>
      <trkpt lat="45.98385" lon="4.00914">
        <ele>380</ele>
        <time>2023-11-07T21:36:04Z</time>
      </trkpt>
      <trkpt lat="45.98398" lon="4.00894">
        <ele>384</ele>
        <time>2023-11-07T21:36:30Z</time>
      </trkpt>
      <trkpt lat="45.9842" lon="4.0085">
        <ele>391</ele>
        <time>2023-11-07T21:37:20Z</time>
      </trkpt>
      <trkpt lat="45.98434" lon="4.00831">
        <ele>393</ele>
        <time>2023-11-07T21:37:46Z</time>
      </trkpt>
      <trkpt lat="45.98446" lon="4.00809">
        <ele>394</ele>
        <time>2023-11-07T21:38:12Z</time>
      </trkpt>
      <trkpt lat="45.98467" lon="4.00761">
        <ele>396</ele>
        <time>2023-11-07T21:39:04Z</time>
      </trkpt>
      <trkpt lat="45.98481" lon="4.00711">
        <ele>394</ele>
        <time>2023-11-07T21:39:54Z</time>
      </trkpt>
      <trkpt lat="45.98453" lon="4.00674">
        <ele>392</ele>
        <time>2023-11-07T21:40:45Z</time>
      </trkpt>
      <trkpt lat="45.98439" lon="4.00658">
        <ele>391</ele>
        <time>2023-11-07T21:41:09Z</time>
      </trkpt>
      <trkpt lat="45.98422" lon="4.00643">
        <ele>389</ele>
        <time>2023-11-07T21:41:35Z</time>
      </trkpt>
      <trkpt lat="45.9841" lon="4.00623">
        <ele>387</ele>
        <time>2023-11-07T21:42:00Z</time>
      </trkpt>
      <trkpt lat="45.98392" lon="4.00611">
        <ele>384</ele>
        <time>2023-11-07T21:42:26Z</time>
      </trkpt>
      <trkpt lat="45.9836" lon="4.0058">
        <ele>377</ele>
        <time>2023-11-07T21:43:18Z</time>
      </trkpt>
      <trkpt lat="45.9836" lon="4.00553">
        <ele>373</ele>
        <time>2023-11-07T21:43:43Z</time>
      </trkpt>
      <trkpt lat="45.98388" lon="4.00517">
        <ele>374</ele>
        <time>2023-11-07T21:44:33Z</time>
      </trkpt>
      <trkpt lat="45.98396" lon="4.00493">
        <ele>374</ele>
        <time>2023-11-07T21:44:58Z</time>
      </trkpt>
      <trkpt lat="45.98391" lon="4.00467">
        <ele>372</ele>
        <time>2023-11-07T21:45:23Z</time>
      </trkpt>
      <trkpt lat="45.98383" lon="4.00444">
        <ele>369</ele>
        <time>2023-11-07T21:45:47Z</time>
      </trkpt>
      <trkpt lat="45.98372" lon="4.00422">
        <ele>366</ele>
        <time>2023-11-07T21:46:12Z</time>
      </trkpt>
      <trkpt lat="45.98331" lon="4.00365">
        <ele>357</ele>
        <time>2023-11-07T21:47:28Z</time>
      </trkpt>
      <trkpt lat="45.98313" lon="4.00368">
        <ele>351</ele>
        <time>2023-11-07T21:47:52Z</time>
      </trkpt>
      <trkpt lat="45.98296" lon="4.00359">
        <ele>346</ele>
        <time>2023-11-07T21:48:16Z</time>
      </trkpt>
      <trkpt lat="45.98278" lon="4.00346">
        <ele>340</ele>
        <time>2023-11-07T21:48:43Z</time>
      </trkpt>
      <trkpt lat="45.98271" lon="4.00374">
        <ele>338</ele>
        <time>2023-11-07T21:49:11Z</time>
      </trkpt>
      <trkpt lat="45.98277" lon="4.00401">
        <ele>339</ele>
        <time>2023-11-07T21:49:37Z</time>
      </trkpt>
      <trkpt lat="45.98259" lon="4.00409">
        <ele>333</ele>
        <time>2023-11-07T21:50:02Z</time>
      </trkpt>
      <trkpt lat="45.9824" lon="4.00402">
        <ele>329</ele>
        <time>2023-11-07T21:50:28Z</time>
      </trkpt>
      <trkpt lat="45.98228" lon="4.00383">
        <ele>328</ele>
        <time>2023-11-07T21:50:52Z</time>
      </trkpt>
      <trkpt lat="45.9822" lon="4.00359">
        <ele>328</ele>
        <time>2023-11-07T21:51:17Z</time>
      </trkpt>
      <trkpt lat="45.98216" lon="4.00332">
        <ele>327</ele>
        <time>2023-11-07T21:51:42Z</time>
      </trkpt>
      <trkpt lat="45.98216" lon="4.00303">
        <ele>329</ele>
        <time>2023-11-07T21:52:09Z</time>
      </trkpt>
      <trkpt lat="45.98219" lon="4.00276">
        <ele>330</ele>
        <time>2023-11-07T21:52:35Z</time>
      </trkpt>
      <trkpt lat="45.98227" lon="4.00249">
        <ele>331</ele>
        <time>2023-11-07T21:53:02Z</time>
      </trkpt>
      <trkpt lat="45.98239" lon="4.00228">
        <ele>332</ele>
        <time>2023-11-07T21:53:27Z</time>
      </trkpt>
      <trkpt lat="45.98249" lon="4.00201">
        <ele>332</ele>
        <time>2023-11-07T21:53:55Z</time>
      </trkpt>
      <trkpt lat="45.98277" lon="4.00139">
        <ele>336</ele>
        <time>2023-11-07T21:55:04Z</time>
      </trkpt>
      <trkpt lat="45.98277" lon="4.00109">
        <ele>337</ele>
        <time>2023-11-07T21:55:32Z</time>
      </trkpt>
      <trkpt lat="45.98273" lon="4.00082">
        <ele>338</ele>
        <time>2023-11-07T21:55:57Z</time>
      </trkpt>
      <trkpt lat="45.98283" lon="4.00058">
        <ele>337</ele>
        <time>2023-11-07T21:56:23Z</time>
      </trkpt>
      <trkpt lat="45.98294" lon="4.00038">
        <ele>335</ele>
        <time>2023-11-07T21:56:47Z</time>
      </trkpt>
      <trkpt lat="45.98308" lon="4.00021">
        <ele>333</ele>
        <time>2023-11-07T21:57:11Z</time>
      </trkpt>
      <trkpt lat="45.9832" lon="3.99998">
        <ele>332</ele>
        <time>2023-11-07T21:57:38Z</time>
      </trkpt>
      <trkpt lat="45.98319" lon="3.9997">
        <ele>334</ele>
        <time>2023-11-07T21:58:04Z</time>
      </trkpt>
      <trkpt lat="45.98309" lon="3.99946">
        <ele>336</ele>
        <time>2023-11-07T21:58:30Z</time>
      </trkpt>
      <trkpt lat="45.98296" lon="3.99926">
        <ele>337</ele>
        <time>2023-11-07T21:58:55Z</time>
      </trkpt>
      <trkpt lat="45.98289" lon="3.99899">
        <ele>336</ele>
        <time>2023-11-07T21:59:22Z</time>
      </trkpt>
      <trkpt lat="45.98277" lon="3.99879">
        <ele>335</ele>
        <time>2023-11-07T21:59:47Z</time>
      </trkpt>
      <trkpt lat="45.98276" lon="3.99853">
        <ele>333</ele>
        <time>2023-11-07T22:00:11Z</time>
      </trkpt>
      <trkpt lat="45.98295" lon="3.99847">
        <ele>336</ele>
        <time>2023-11-07T22:00:37Z</time>
      </trkpt>
      <trkpt lat="45.98312" lon="3.99835">
        <ele>338</ele>
        <time>2023-11-07T22:01:02Z</time>
      </trkpt>
      <trkpt lat="45.98325" lon="3.99818">
        <ele>339</ele>
        <time>2023-11-07T22:01:25Z</time>
      </trkpt>
      <trkpt lat="45.98341" lon="3.9977">
        <ele>338</ele>
        <time>2023-11-07T22:02:15Z</time>
      </trkpt>
      <trkpt lat="45.98353" lon="3.99747">
        <ele>340</ele>
        <time>2023-11-07T22:02:41Z</time>
      </trkpt>
      <trkpt lat="45.9836" lon="3.99722">
        <ele>341</ele>
        <time>2023-11-07T22:03:06Z</time>
      </trkpt>
      <trkpt lat="45.98359" lon="3.99693">
        <ele>341</ele>
        <time>2023-11-07T22:03:33Z</time>
      </trkpt>
      <trkpt lat="45.9836" lon="3.99664">
        <ele>341</ele>
        <time>2023-11-07T22:04:00Z</time>
      </trkpt>
      <trkpt lat="45.98342" lon="3.99648">
        <ele>337</ele>
        <time>2023-11-07T22:04:29Z</time>
      </trkpt>
      <trkpt lat="45.98331" lon="3.99626">
        <ele>335</ele>
        <time>2023-11-07T22:04:54Z</time>
      </trkpt>
      <trkpt lat="45.98326" lon="3.99596">
        <ele>335</ele>
        <time>2023-11-07T22:05:22Z</time>
      </trkpt>
      <trkpt lat="45.98318" lon="3.99571">
        <ele>336</ele>
        <time>2023-11-07T22:05:48Z</time>
      </trkpt>
      <trkpt lat="45.98308" lon="3.99547">
        <ele>337</ele>
        <time>2023-11-07T22:06:14Z</time>
      </trkpt>
      <trkpt lat="45.98295" lon="3.99496">
        <ele>339</ele>
        <time>2023-11-07T22:07:04Z</time>
      </trkpt>
      <trkpt lat="45.98278" lon="3.99481">
        <ele>339</ele>
        <time>2023-11-07T22:07:31Z</time>
      </trkpt>
      <trkpt lat="45.9826" lon="3.99482">
        <ele>339</ele>
        <time>2023-11-07T22:07:55Z</time>
      </trkpt>
      <trkpt lat="45.98242" lon="3.99491">
        <ele>341</ele>
        <time>2023-11-07T22:08:20Z</time>
      </trkpt>
      <trkpt lat="45.98224" lon="3.99489">
        <ele>343</ele>
        <time>2023-11-07T22:08:44Z</time>
      </trkpt>
      <trkpt lat="45.98207" lon="3.99497">
        <ele>346</ele>
        <time>2023-11-07T22:09:08Z</time>
      </trkpt>
      <trkpt lat="45.98187" lon="3.99499">
        <ele>348</ele>
        <time>2023-11-07T22:09:35Z</time>
      </trkpt>
      <trkpt lat="45.98169" lon="3.9951">
        <ele>350</ele>
        <time>2023-11-07T22:10:01Z</time>
      </trkpt>
      <trkpt lat="45.98131" lon="3.99511">
        <ele>353</ele>
        <time>2023-11-07T22:10:52Z</time>
      </trkpt>
      <trkpt lat="45.98112" lon="3.99517">
        <ele>353</ele>
        <time>2023-11-07T22:11:18Z</time>
      </trkpt>
      <trkpt lat="45.98092" lon="3.99516">
        <ele>354</ele>
        <time>2023-11-07T22:11:44Z</time>
      </trkpt>
      <trkpt lat="45.98053" lon="3.99521">
        <ele>357</ele>
        <time>2023-11-07T22:12:37Z</time>
      </trkpt>
      <trkpt lat="45.98034" lon="3.99525">
        <ele>358</ele>
        <time>2023-11-07T22:13:02Z</time>
      </trkpt>
      <trkpt lat="45.97997" lon="3.99522">
        <ele>361</ele>
        <time>2023-11-07T22:13:52Z</time>
      </trkpt>
      <trkpt lat="45.97961" lon="3.99524">
        <ele>362</ele>
        <time>2023-11-07T22:14:40Z</time>
      </trkpt>
      <trkpt lat="45.97942" lon="3.99528">
        <ele>363</ele>
        <time>2023-11-07T22:15:05Z</time>
      </trkpt>
      <trkpt lat="45.9794" lon="3.99554">
        <ele>363</ele>
        <time>2023-11-07T22:15:30Z</time>
      </trkpt>
      <trkpt lat="45.9794" lon="3.99581">
        <ele>362</ele>
        <time>2023-11-07T22:15:55Z</time>
      </trkpt>
      <trkpt lat="45.97946" lon="3.99609">
        <ele>362</ele>
        <time>2023-11-07T22:16:22Z</time>
      </trkpt>
      <trkpt lat="45.97978" lon="3.9971">
        <ele>360</ele>
        <time>2023-11-07T22:18:05Z</time>
      </trkpt>
      <trkpt lat="45.97982" lon="3.99735">
        <ele>360</ele>
        <time>2023-11-07T22:18:29Z</time>
      </trkpt>
      <trkpt lat="45.97983" lon="3.99763">
        <ele>360</ele>
        <time>2023-11-07T22:18:55Z</time>
      </trkpt>
      <trkpt lat="45.97974" lon="3.99818">
        <ele>362</ele>
        <time>2023-11-07T22:19:47Z</time>
      </trkpt>
      <trkpt lat="45.97974" lon="3.99873">
        <ele>364</ele>
        <time>2023-11-07T22:20:38Z</time>
      </trkpt>
      <trkpt lat="45.97971" lon="3.9993">
        <ele>365</ele>
        <time>2023-11-07T22:21:31Z</time>
      </trkpt>
      <trkpt lat="45.97972" lon="3.99983">
        <ele>366</ele>
        <time>2023-11-07T22:22:20Z</time>
      </trkpt>
      <trkpt lat="45.97963" lon="4.00006">
        <ele>366</ele>
        <time>2023-11-07T22:22:45Z</time>
      </trkpt>
      <trkpt lat="45.97945" lon="3.99993">
        <ele>367</ele>
        <time>2023-11-07T22:23:12Z</time>
      </trkpt>
      <trkpt lat="45.97925" lon="3.99985">
        <ele>368</ele>
        <time>2023-11-07T22:23:39Z</time>
      </trkpt>
      <trkpt lat="45.97907" lon="3.99975">
        <ele>369</ele>
        <time>2023-11-07T22:24:05Z</time>
      </trkpt>
      <trkpt lat="45.97892" lon="3.99961">
        <ele>369</ele>
        <time>2023-11-07T22:24:29Z</time>
      </trkpt>
      <trkpt lat="45.97857" lon="3.99935">
        <ele>370</ele>
        <time>2023-11-07T22:25:21Z</time>
      </trkpt>
      <trkpt lat="45.97838" lon="3.9993">
        <ele>371</ele>
        <time>2023-11-07T22:25:47Z</time>
      </trkpt>
      <trkpt lat="45.97819" lon="3.99929">
        <ele>372</ele>
        <time>2023-11-07T22:26:13Z</time>
      </trkpt>
      <trkpt lat="45.97799" lon="3.99925">
        <ele>374</ele>
        <time>2023-11-07T22:26:40Z</time>
      </trkpt>
      <trkpt lat="45.97778" lon="3.9993">
        <ele>375</ele>
        <time>2023-11-07T22:27:08Z</time>
      </trkpt>
      <trkpt lat="45.9776" lon="3.99931">
        <ele>377</ele>
        <time>2023-11-07T22:27:32Z</time>
      </trkpt>
      <trkpt lat="45.97699" lon="3.99942">
        <ele>381</ele>
        <time>2023-11-07T22:28:54Z</time>
      </trkpt>
      <trkpt lat="45.97682" lon="3.99954">
        <ele>383</ele>
        <time>2023-11-07T22:29:19Z</time>
      </trkpt>
      <trkpt lat="45.97663" lon="3.99957">
        <ele>384</ele>
        <time>2023-11-07T22:29:45Z</time>
      </trkpt>
      <trkpt lat="45.97644" lon="3.99954">
        <ele>385</ele>
        <time>2023-11-07T22:30:10Z</time>
      </trkpt>
      <trkpt lat="45.97589" lon="3.9994">
        <ele>386</ele>
        <time>2023-11-07T22:31:25Z</time>
      </trkpt>
      <trkpt lat="45.97571" lon="3.99937">
        <ele>386</ele>
        <time>2023-11-07T22:31:49Z</time>
      </trkpt>
      <trkpt lat="45.97534" lon="3.99936">
        <ele>386</ele>
        <time>2023-11-07T22:32:38Z</time>
      </trkpt>
      <trkpt lat="45.97516" lon="3.99942">
        <ele>386</ele>
        <time>2023-11-07T22:33:03Z</time>
      </trkpt>
      <trkpt lat="45.97497" lon="3.99943">
        <ele>386</ele>
        <time>2023-11-07T22:33:28Z</time>
      </trkpt>
      <trkpt lat="45.97459" lon="3.99943">
        <ele>384</ele>
        <time>2023-11-07T22:34:19Z</time>
      </trkpt>
      <trkpt lat="45.97438" lon="3.99939">
        <ele>383</ele>
        <time>2023-11-07T22:34:47Z</time>
      </trkpt>
      <trkpt lat="45.97419" lon="3.99941">
        <ele>382</ele>
        <time>2023-11-07T22:35:13Z</time>
      </trkpt>
      <trkpt lat="45.97381" lon="3.9994">
        <ele>382</ele>
        <time>2023-11-07T22:36:04Z</time>
      </trkpt>
      <trkpt lat="45.97361" lon="3.99941">
        <ele>382</ele>
        <time>2023-11-07T22:36:30Z</time>
      </trkpt>
      <trkpt lat="45.97341" lon="3.99939">
        <ele>382</ele>
        <time>2023-11-07T22:36:57Z</time>
      </trkpt>
      <trkpt lat="45.97322" lon="3.99945">
        <ele>382</ele>
        <time>2023-11-07T22:37:23Z</time>
      </trkpt>
      <trkpt lat="45.97319" lon="4">
        <ele>381</ele>
        <time>2023-11-07T22:38:14Z</time>
      </trkpt>
      <trkpt lat="45.97313" lon="4.00055">
        <ele>380</ele>
        <time>2023-11-07T22:39:06Z</time>
      </trkpt>
      <trkpt lat="45.97307" lon="4.00139">
        <ele>378</ele>
        <time>2023-11-07T22:40:24Z</time>
      </trkpt>
      <trkpt lat="45.97301" lon="4.00164">
        <ele>377</ele>
        <time>2023-11-07T22:40:49Z</time>
      </trkpt>
      <trkpt lat="45.97296" lon="4.00163">
        <ele>377</ele>
        <time>2023-11-07T22:40:55Z</time>
      </trkpt>
      <trkpt lat="45.97275" lon="4.00192">
        <ele>376</ele>
        <time>2023-11-07T22:41:34Z</time>
      </trkpt>
      <trkpt lat="45.97243" lon="4.00211">
        <ele>373</ele>
        <time>2023-11-07T22:42:20Z</time>
      </trkpt>
      <trkpt lat="45.97227" lon="4.00226">
        <ele>374</ele>
        <time>2023-11-07T22:42:46Z</time>
      </trkpt>
      <trkpt lat="45.97222" lon="4.00235">
        <ele>374</ele>
        <time>2023-11-07T22:42:57Z</time>
      </trkpt>
      <trkpt lat="45.97216" lon="4.00252">
        <ele>374</ele>
        <time>2023-11-07T22:43:14Z</time>
      </trkpt>
      <trkpt lat="45.97215" lon="4.00313">
        <ele>372</ele>
        <time>2023-11-07T22:44:11Z</time>
      </trkpt>
      <trkpt lat="45.97212" lon="4.00327">
        <ele>372</ele>
        <time>2023-11-07T22:44:24Z</time>
      </trkpt>
      <trkpt lat="45.97203" lon="4.00336">
        <ele>372</ele>
        <time>2023-11-07T22:44:39Z</time>
      </trkpt>
      <trkpt lat="45.97194" lon="4.00341">
        <ele>372</ele>
        <time>2023-11-07T22:44:52Z</time>
      </trkpt>
      <trkpt lat="45.97187" lon="4.00341">
        <ele>373</ele>
        <time>2023-11-07T22:45:01Z</time>
      </trkpt>
      <trkpt lat="45.97149" lon="4.0035">
        <ele>373</ele>
        <time>2023-11-07T22:45:53Z</time>
      </trkpt>
      <trkpt lat="45.97134" lon="4.00346">
        <ele>373</ele>
        <time>2023-11-07T22:46:13Z</time>
      </trkpt>
      <trkpt lat="45.97082" lon="4.00313">
        <ele>376</ele>
        <time>2023-11-07T22:47:29Z</time>
      </trkpt>
      <trkpt lat="45.97076" lon="4.00325">
        <ele>375</ele>
        <time>2023-11-07T22:47:43Z</time>
      </trkpt>
      <trkpt lat="45.97069" lon="4.0033">
        <ele>374</ele>
        <time>2023-11-07T22:47:53Z</time>
      </trkpt>
      <trkpt lat="45.97059" lon="4.00333">
        <ele>373</ele>
        <time>2023-11-07T22:48:07Z</time>
      </trkpt>
      <trkpt lat="45.97026" lon="4.00329">
        <ele>370</ele>
        <time>2023-11-07T22:48:51Z</time>
      </trkpt>
      <trkpt lat="45.96997" lon="4.00333">
        <ele>367</ele>
        <time>2023-11-07T22:49:30Z</time>
      </trkpt>
      <trkpt lat="45.96977" lon="4.0033">
        <ele>368</ele>
        <time>2023-11-07T22:49:57Z</time>
      </trkpt>
      <trkpt lat="45.9696" lon="4.00331">
        <ele>369</ele>
        <time>2023-11-07T22:50:19Z</time>
      </trkpt>
      <trkpt lat="45.96946" lon="4.00335">
        <ele>369</ele>
        <time>2023-11-07T22:50:38Z</time>
      </trkpt>
      <trkpt lat="45.96919" lon="4.00336">
        <ele>370</ele>
        <time>2023-11-07T22:51:14Z</time>
      </trkpt>
      <trkpt lat="45.96912" lon="4.00345">
        <ele>371</ele>
        <time>2023-11-07T22:51:27Z</time>
      </trkpt>
      <trkpt lat="45.96909" lon="4.00355">
        <ele>372</ele>
        <time>2023-11-07T22:51:37Z</time>
      </trkpt>
      <trkpt lat="45.96909" lon="4.00363">
        <ele>372</ele>
        <time>2023-11-07T22:51:44Z</time>
      </trkpt>
      <trkpt lat="45.96911" lon="4.0037">
        <ele>372</ele>
        <time>2023-11-07T22:51:51Z</time>
      </trkpt>
      <trkpt lat="45.96922" lon="4.00382">
        <ele>371</ele>
        <time>2023-11-07T22:52:10Z</time>
      </trkpt>
      <trkpt lat="45.9694" lon="4.00393">
        <ele>369</ele>
        <time>2023-11-07T22:52:36Z</time>
      </trkpt>
      <trkpt lat="45.96938" lon="4.00417">
        <ele>369</ele>
        <time>2023-11-07T22:52:58Z</time>
      </trkpt>
      <trkpt lat="45.96921" lon="4.00486">
        <ele>372</ele>
        <time>2023-11-07T22:54:06Z</time>
      </trkpt>
      <trkpt lat="45.96893" lon="4.00567">
        <ele>372</ele>
        <time>2023-11-07T22:55:30Z</time>
      </trkpt>
      <trkpt lat="45.96812" lon="4.00634">
        <ele>378</ele>
        <time>2023-11-07T22:57:35Z</time>
      </trkpt>
      <trkpt lat="45.96805" lon="4.00645">
        <ele>379</ele>
        <time>2023-11-07T22:57:49Z</time>
      </trkpt>
      <trkpt lat="45.96797" lon="4.00693">
        <ele>378</ele>
        <time>2023-11-07T22:58:34Z</time>
      </trkpt>
      <trkpt lat="45.96786" lon="4.00721">
        <ele>378</ele>
        <time>2023-11-07T22:59:04Z</time>
      </trkpt>
      <trkpt lat="45.96761" lon="4.00758">
        <ele>378</ele>
        <time>2023-11-07T22:59:52Z</time>
      </trkpt>
      <trkpt lat="45.96745" lon="4.00774">
        <ele>376</ele>
        <time>2023-11-07T23:00:18Z</time>
      </trkpt>
      <trkpt lat="45.96732" lon="4.00781">
        <ele>376</ele>
        <time>2023-11-07T23:00:37Z</time>
      </trkpt>
      <trkpt lat="45.96705" lon="4.00791">
        <ele>377</ele>
        <time>2023-11-07T23:01:14Z</time>
      </trkpt>
      <trkpt lat="45.96674" lon="4.00797">
        <ele>379</ele>
        <time>2023-11-07T23:01:56Z</time>
      </trkpt>
      <trkpt lat="45.9666" lon="4.00805">
        <ele>379</ele>
        <time>2023-11-07T23:02:16Z</time>
      </trkpt>
      <trkpt lat="45.96657" lon="4.00825">
        <ele>374</ele>
        <time>2023-11-07T23:02:35Z</time>
      </trkpt>
      <trkpt lat="45.96641" lon="4.00829">
        <ele>376</ele>
        <time>2023-11-07T23:02:56Z</time>
      </trkpt>
      <trkpt lat="45.96605" lon="4.00856">
        <ele>374</ele>
        <time>2023-11-07T23:03:51Z</time>
      </trkpt>
      <trkpt lat="45.96602" lon="4.00856">
        <ele>375</ele>
        <time>2023-11-07T23:03:55Z</time>
      </trkpt>
      <trkpt lat="45.96577" lon="4.00845">
        <ele>381</ele>
        <time>2023-11-07T23:04:29Z</time>
      </trkpt>
      <trkpt lat="45.96574" lon="4.00846">
        <ele>381</ele>
        <time>2023-11-07T23:04:34Z</time>
      </trkpt>
      <trkpt lat="45.96568" lon="4.00852">
        <ele>379</ele>
        <time>2023-11-07T23:04:43Z</time>
      </trkpt>
      <trkpt lat="45.9656" lon="4.00875">
        <ele>374</ele>
        <time>2023-11-07T23:05:07Z</time>
      </trkpt>
      <trkpt lat="45.96553" lon="4.00881">
        <ele>374</ele>
        <time>2023-11-07T23:05:18Z</time>
      </trkpt>
      <trkpt lat="45.96545" lon="4.00881">
        <ele>374</ele>
        <time>2023-11-07T23:05:29Z</time>
      </trkpt>
      <trkpt lat="45.96537" lon="4.00892">
        <ele>372</ele>
        <time>2023-11-07T23:05:43Z</time>
      </trkpt>
      <trkpt lat="45.96532" lon="4.00896">
        <ele>372</ele>
        <time>2023-11-07T23:05:51Z</time>
      </trkpt>
      <trkpt lat="45.96519" lon="4.00898">
        <ele>373</ele>
        <time>2023-11-07T23:06:09Z</time>
      </trkpt>
      <trkpt lat="45.965" lon="4.00888">
        <ele>375</ele>
        <time>2023-11-07T23:06:36Z</time>
      </trkpt>
      <trkpt lat="45.96495" lon="4.00883">
        <ele>375</ele>
        <time>2023-11-07T23:06:44Z</time>
      </trkpt>
      <trkpt lat="45.96488" lon="4.00948">
        <ele>365</ele>
        <time>2023-11-07T23:07:45Z</time>
      </trkpt>
      <trkpt lat="45.96479" lon="4.00966">
        <ele>360</ele>
        <time>2023-11-07T23:08:05Z</time>
      </trkpt>
      <trkpt lat="45.9647" lon="4.00975">
        <ele>357</ele>
        <time>2023-11-07T23:08:20Z</time>
      </trkpt>
      <trkpt lat="45.96467" lon="4.00982">
        <ele>356</ele>
        <time>2023-11-07T23:08:27Z</time>
      </trkpt>
      <trkpt lat="45.96463" lon="4.0098">
        <ele>355</ele>
        <time>2023-11-07T23:08:33Z</time>
      </trkpt>
      <trkpt lat="45.96462" lon="4.00988">
        <ele>354</ele>
        <time>2023-11-07T23:08:41Z</time>
      </trkpt>
      <trkpt lat="45.96451" lon="4.01011">
        <ele>350</ele>
        <time>2023-11-07T23:09:07Z</time>
      </trkpt>
      <trkpt lat="45.96444" lon="4.01037">
        <ele>349</ele>
        <time>2023-11-07T23:09:32Z</time>
      </trkpt>
      <trkpt lat="45.96439" lon="4.01063">
        <ele>348</ele>
        <time>2023-11-07T23:09:57Z</time>
      </trkpt>
      <trkpt lat="45.96438" lon="4.0109">
        <ele>347</ele>
        <time>2023-11-07T23:10:23Z</time>
      </trkpt>
      <trkpt lat="45.96445" lon="4.01115">
        <ele>346</ele>
        <time>2023-11-07T23:10:48Z</time>
      </trkpt>
      <trkpt lat="45.96433" lon="4.01137">
        <ele>344</ele>
        <time>2023-11-07T23:11:13Z</time>
      </trkpt>
      <trkpt lat="45.96443" lon="4.0116">
        <ele>343</ele>
        <time>2023-11-07T23:11:39Z</time>
      </trkpt>
      <trkpt lat="45.96463" lon="4.01163">
        <ele>345</ele>
        <time>2023-11-07T23:12:05Z</time>
      </trkpt>
      <trkpt lat="45.96474" lon="4.01185">
        <ele>342</ele>
        <time>2023-11-07T23:12:31Z</time>
      </trkpt>
      <trkpt lat="45.9649" lon="4.01197">
        <ele>341</ele>
        <time>2023-11-07T23:12:55Z</time>
      </trkpt>
      <trkpt lat="45.96485" lon="4.01143">
        <ele>348</ele>
        <time>2023-11-07T23:13:45Z</time>
      </trkpt>
      <trkpt lat="45.96479" lon="4.01115">
        <ele>349</ele>
        <time>2023-11-07T23:14:12Z</time>
      </trkpt>
      <trkpt lat="45.96479" lon="4.01089">
        <ele>351</ele>
        <time>2023-11-07T23:14:37Z</time>
      </trkpt>
      <trkpt lat="45.9649" lon="4.01068">
        <ele>353</ele>
        <time>2023-11-07T23:15:01Z</time>
      </trkpt>
      <trkpt lat="45.96487" lon="4.01042">
        <ele>354</ele>
        <time>2023-11-07T23:15:25Z</time>
      </trkpt>
      <trkpt lat="45.96471" lon="4.01055">
        <ele>351</ele>
        <time>2023-11-07T23:15:50Z</time>
      </trkpt>
      <trkpt lat="45.96472" lon="4.01081">
        <ele>351</ele>
        <time>2023-11-07T23:16:14Z</time>
      </trkpt>
      <trkpt lat="45.96476" lon="4.01107">
        <ele>349</ele>
        <time>2023-11-07T23:16:39Z</time>
      </trkpt>
      <trkpt lat="45.96462" lon="4.01122">
        <ele>347</ele>
        <time>2023-11-07T23:17:02Z</time>
      </trkpt>
      <trkpt lat="45.96448" lon="4.01103">
        <ele>347</ele>
        <time>2023-11-07T23:17:28Z</time>
      </trkpt>
      <trkpt lat="45.96444" lon="4.01076">
        <ele>348</ele>
        <time>2023-11-07T23:17:53Z</time>
      </trkpt>
      <trkpt lat="45.96447" lon="4.0105">
        <ele>349</ele>
        <time>2023-11-07T23:18:18Z</time>
      </trkpt>
      <trkpt lat="45.96453" lon="4.01022">
        <ele>350</ele>
        <time>2023-11-07T23:18:45Z</time>
      </trkpt>
      <trkpt lat="45.96466" lon="4.01001">
        <ele>352</ele>
        <time>2023-11-07T23:19:11Z</time>
      </trkpt>
      <trkpt lat="45.96468" lon="4.00975">
        <ele>357</ele>
        <time>2023-11-07T23:19:35Z</time>
      </trkpt>
      <trkpt lat="45.96454" lon="4.00956">
        <ele>358</ele>
        <time>2023-11-07T23:20:01Z</time>
      </trkpt>
      <trkpt lat="45.9645" lon="4.00928">
        <ele>362</ele>
        <time>2023-11-07T23:20:28Z</time>
      </trkpt>
      <trkpt lat="45.96441" lon="4.00904">
        <ele>364</ele>
        <time>2023-11-07T23:20:53Z</time>
      </trkpt>
      <trkpt lat="45.96439" lon="4.00876">
        <ele>367</ele>
        <time>2023-11-07T23:21:19Z</time>
      </trkpt>
      <trkpt lat="45.96457" lon="4.00883">
        <ele>369</ele>
        <time>2023-11-07T23:21:44Z</time>
      </trkpt>
      <trkpt lat="45.96474" lon="4.00875">
        <ele>373</ele>
        <time>2023-11-07T23:22:08Z</time>
      </trkpt>
      <trkpt lat="45.96493" lon="4.00873">
        <ele>376</ele>
        <time>2023-11-07T23:22:33Z</time>
      </trkpt>
      <trkpt lat="45.96509" lon="4.00796">
        <ele>383</ele>
        <time>2023-11-07T23:23:48Z</time>
      </trkpt>
      <trkpt lat="45.96512" lon="4.00769">
        <ele>384</ele>
        <time>2023-11-07T23:24:13Z</time>
      </trkpt>
      <trkpt lat="45.9652" lon="4.00746">
        <ele>385</ele>
        <time>2023-11-07T23:24:37Z</time>
      </trkpt>
      <trkpt lat="45.96534" lon="4.00727">
        <ele>386</ele>
        <time>2023-11-07T23:25:03Z</time>
      </trkpt>
      <trkpt lat="45.9654" lon="4.00701">
        <ele>387</ele>
        <time>2023-11-07T23:25:28Z</time>
      </trkpt>
      <trkpt lat="45.96553" lon="4.0068">
        <ele>389</ele>
        <time>2023-11-07T23:25:54Z</time>
      </trkpt>
      <trkpt lat="45.96567" lon="4.00664">
        <ele>391</ele>
        <time>2023-11-07T23:26:18Z</time>
      </trkpt>
      <trkpt lat="45.96578" lon="4.00641">
        <ele>393</ele>
        <time>2023-11-07T23:26:44Z</time>
      </trkpt>
      <trkpt lat="45.96608" lon="4.00539">
        <ele>399</ele>
        <time>2023-11-07T23:28:27Z</time>
      </trkpt>
      <trkpt lat="45.96611" lon="4.00512">
        <ele>401</ele>
        <time>2023-11-07T23:28:52Z</time>
      </trkpt>
      <trkpt lat="45.96605" lon="4.0043">
        <ele>404</ele>
        <time>2023-11-07T23:30:08Z</time>
      </trkpt>
      <trkpt lat="45.96607" lon="4.00403">
        <ele>405</ele>
        <time>2023-11-07T23:30:34Z</time>
      </trkpt>
      <trkpt lat="45.96606" lon="4.00376">
        <ele>405</ele>
        <time>2023-11-07T23:30:59Z</time>
      </trkpt>
      <trkpt lat="45.96611" lon="4.0035">
        <ele>404</ele>
        <time>2023-11-07T23:31:24Z</time>
      </trkpt>
      <trkpt lat="45.96611" lon="4.00323">
        <ele>404</ele>
        <time>2023-11-07T23:31:49Z</time>
      </trkpt>
      <trkpt lat="45.96622" lon="4.00301">
        <ele>403</ele>
        <time>2023-11-07T23:32:14Z</time>
      </trkpt>
      <trkpt lat="45.9664" lon="4.00286">
        <ele>401</ele>
        <time>2023-11-07T23:32:42Z</time>
      </trkpt>
      <trkpt lat="45.96653" lon="4.00267">
        <ele>400</ele>
        <time>2023-11-07T23:33:06Z</time>
      </trkpt>
      <trkpt lat="45.96668" lon="4.00251">
        <ele>398</ele>
        <time>2023-11-07T23:33:31Z</time>
      </trkpt>
      <trkpt lat="45.9668" lon="4.0023">
        <ele>397</ele>
        <time>2023-11-07T23:33:56Z</time>
      </trkpt>
      <trkpt lat="45.96689" lon="4.00206">
        <ele>396</ele>
        <time>2023-11-07T23:34:22Z</time>
      </trkpt>
      <trkpt lat="45.967" lon="4.00184">
        <ele>395</ele>
        <time>2023-11-07T23:34:47Z</time>
      </trkpt>
      <trkpt lat="45.96719" lon="4.00176">
        <ele>394</ele>
        <time>2023-11-07T23:35:13Z</time>
      </trkpt>
    </trkseg>
  </trk>
</gpx>